createdAt,value
2023-03-05T00:02:51.857Z,1.10
2023-03-05T00:06:42.304Z,1.02
2023-03-05T00:10:38.406Z,1.10
2023-03-05T00:14:01.586Z,1.30
2023-03-05T00:17:54.084Z,1.40
2023-03-05T00:21:34.468Z,1.37
2023-03-05T00:25:14.360Z,1.05
2023-03-05T00:29:21.404Z,1.07
2023-03-05T00:33:19.758Z,1.20
2023-03-05T00:36:47.131Z,1.10
2023-03-05T00:40:39.130Z,1.05
2023-03-05T00:44:01.627Z,1.40
2023-03-05T00:47:56.340Z,1.30
2023-03-05T00:51:27.370Z,1.15
2023-03-05T01:01:26.879Z,1.00
2023-03-05T01:05:31.288Z,1.32
2023-03-05T01:13:26.758Z,1.17
2023-03-05T01:17:21.936Z,1.50
2023-03-05T01:20:43.151Z,1.30
2023-03-05T01:27:41.415Z,1.45
2023-03-05T01:31:20.616Z,1.77
2023-03-05T01:35:14.594Z,1.47
2023-03-05T01:39:16.619Z,1.40
2023-03-05T01:46:43.941Z,1.30
2023-03-05T01:50:03.320Z,1.62
2023-03-05T01:52:52.598Z,1.12
2023-03-05T01:55:27.818Z,1.30
2023-03-05T01:58:03.997Z,1.05
2023-03-05T02:00:40.556Z,1.30
2023-03-05T02:03:15.791Z,1.00
2023-03-05T02:05:49.078Z,0.95
2023-03-05T02:08:24.036Z,1.27
2023-03-05T02:10:58.218Z,1.50
2023-03-05T02:13:35.828Z,1.45
2023-03-05T02:16:11.086Z,1.02
2023-03-05T02:18:44.577Z,1.00
2023-03-05T02:21:24.048Z,2.83
2023-03-05T02:23:57.494Z,1.30
2023-03-05T02:26:31.081Z,1.52
2023-03-05T02:29:08.122Z,1.37
2023-03-05T02:31:41.518Z,1.52
2023-03-05T02:34:15.042Z,0.90
2023-03-05T02:36:51.004Z,1.20
2023-03-05T02:39:25.284Z,1.67
2023-03-05T02:41:59.002Z,1.07
2023-03-05T02:44:32.570Z,1.57
2023-03-05T02:47:06.964Z,1.12
2023-03-05T02:49:40.568Z,1.15
2023-03-05T02:52:13.916Z,1.55
2023-03-05T02:54:47.387Z,0.95
2023-03-05T02:57:21.111Z,1.00
2023-03-05T02:59:54.836Z,1.75
2023-03-05T03:02:28.189Z,1.47
2023-03-05T03:05:01.572Z,1.30
2023-03-05T03:07:36.705Z,1.10
2023-03-05T03:10:12.733Z,1.27
2023-03-05T03:12:47.265Z,1.30
2023-03-05T03:15:21.115Z,1.15
2023-03-05T03:17:55.597Z,1.45
2023-03-05T03:20:29.270Z,1.15
2023-03-05T03:23:02.738Z,1.27
2023-03-05T03:25:36.873Z,1.30
2023-03-05T03:28:10.378Z,0.95
2023-03-05T03:30:43.621Z,1.30
2023-03-05T03:33:18.327Z,1.45
2023-03-05T03:35:51.675Z,1.40
2023-03-05T03:38:25.182Z,1.95
2023-03-05T03:40:59.416Z,1.10
2023-03-05T03:43:32.791Z,1.20
2023-03-05T03:46:08.372Z,1.40
2023-03-05T03:48:41.786Z,1.80
2023-03-05T03:51:14.942Z,1.60
2023-03-05T03:53:48.660Z,0.90
2023-03-05T03:56:22.119Z,1.37
2023-03-05T03:58:55.728Z,1.22
2023-03-05T04:01:29.088Z,1.35
2023-03-05T04:04:02.657Z,1.20
2023-03-05T04:06:36.698Z,1.95
2023-03-05T04:09:10.566Z,0.90
2023-03-05T04:11:43.841Z,1.20
2023-03-05T04:14:17.443Z,2.00
2023-03-05T04:16:50.942Z,1.02
2023-03-05T04:19:24.837Z,1.55
2023-03-05T04:21:58.193Z,1.02
2023-03-05T04:24:31.866Z,1.15
2023-03-05T04:27:05.055Z,1.05
2023-03-05T04:29:38.843Z,1.22
2023-03-05T04:32:12.504Z,1.10
2023-03-05T04:34:45.608Z,1.47
2023-03-05T04:37:18.981Z,1.15
2023-03-05T04:39:52.225Z,1.07
2023-03-05T04:42:25.678Z,1.20
2023-03-05T04:44:58.891Z,1.15
2023-03-05T04:47:34.130Z,1.10
2023-03-05T04:50:09.233Z,1.10
2023-03-05T04:52:44.406Z,1.07
2023-03-05T04:55:19.066Z,1.25
2023-03-05T04:57:52.102Z,1.00
2023-03-05T05:00:25.816Z,1.30
2023-03-05T05:02:59.153Z,0.93
2023-03-05T05:05:32.676Z,1.65
2023-03-05T05:08:06.649Z,1.02
2023-03-05T05:10:41.589Z,1.37
2023-03-05T05:13:14.704Z,1.55
2023-03-05T05:15:47.753Z,1.40
2023-03-05T05:18:21.170Z,1.40
2023-03-05T05:20:54.593Z,2.02
2023-03-05T05:23:27.950Z,1.40
2023-03-05T05:26:03.194Z,1.02
2023-03-05T05:28:38.491Z,1.57
2023-03-05T05:31:14.118Z,1.27
2023-03-05T05:33:49.766Z,1.20
2023-03-05T05:36:23.153Z,1.20
2023-03-05T05:38:56.784Z,1.30
2023-03-05T05:41:29.948Z,1.32
2023-03-05T05:44:03.336Z,1.40
2023-03-05T05:46:36.621Z,1.12
2023-03-05T05:49:09.753Z,2.08
2023-03-05T05:51:42.846Z,1.50
2023-03-05T05:54:17.157Z,1.35
2023-03-05T05:56:50.635Z,1.80
2023-03-05T05:59:24.153Z,1.82
2023-03-05T06:01:57.644Z,1.80
2023-03-05T06:04:30.829Z,1.00
2023-03-05T06:07:04.244Z,1.75
2023-03-05T06:09:38.994Z,1.65
2023-03-05T06:12:12.276Z,1.60
2023-03-05T06:14:45.445Z,1.82
2023-03-05T06:17:28.628Z,1.40
2023-03-05T06:19:56.735Z,2.35
2023-03-05T06:22:30.250Z,2.00
2023-03-05T06:25:03.784Z,1.42
2023-03-05T06:27:38.762Z,1.40
2023-03-05T06:30:14.625Z,1.45
2023-03-05T06:32:48.287Z,1.60
2023-03-05T06:35:42.656Z,1.85
2023-03-05T06:38:18.439Z,1.60
2023-03-05T06:40:51.952Z,2.05
2023-03-05T06:43:25.067Z,1.60
2023-03-05T06:46:09.494Z,1.85
2023-03-05T06:48:43.866Z,2.30
2023-03-05T06:51:18.504Z,1.80
2023-03-05T06:53:52.403Z,2.35
2023-03-05T06:56:26.120Z,2.22
2023-03-05T06:58:59.426Z,1.80
2023-03-05T07:01:33.220Z,2.40
2023-03-05T07:04:07.286Z,2.77
2023-03-05T07:06:42.282Z,2.22
2023-03-05T07:09:17.483Z,2.65
2023-03-05T07:11:50.988Z,2.22
2023-03-05T07:14:24.150Z,2.92
2023-03-05T07:16:57.569Z,3.30
2023-03-05T07:19:30.750Z,2.72
2023-03-05T07:22:04.243Z,2.75
2023-03-05T07:24:37.715Z,3.67
2023-03-05T07:27:11.157Z,3.55
2023-03-05T07:29:44.898Z,3.10
2023-03-05T07:32:18.043Z,3.60
2023-03-05T07:34:53.794Z,3.50
2023-03-05T07:37:27.081Z,2.60
2023-03-05T07:40:00.470Z,3.08
2023-03-05T07:42:35.145Z,3.58
2023-03-05T07:45:11.900Z,4.20
2023-03-05T07:47:45.391Z,3.72
2023-03-05T07:50:19.036Z,3.55
2023-03-05T07:52:53.070Z,4.15
2023-03-05T07:55:26.467Z,3.70
2023-03-05T07:57:59.543Z,3.75
2023-03-05T08:00:33.120Z,3.47
2023-03-05T08:03:06.839Z,3.33
2023-03-05T08:05:43.347Z,3.15
2023-03-05T08:08:16.912Z,3.08
2023-03-05T08:10:50.316Z,2.87
2023-03-05T08:13:23.596Z,3.52
2023-03-05T08:15:56.909Z,2.77
2023-03-05T08:18:30.175Z,3.42
2023-03-05T08:21:03.777Z,2.62
2023-03-05T08:23:37.030Z,3.12
2023-03-05T08:26:17.182Z,2.70
2023-03-05T08:28:50.402Z,2.70
2023-03-05T08:31:26.617Z,2.98
2023-03-05T08:34:02.119Z,3.02
2023-03-05T08:36:35.597Z,2.37
2023-03-05T08:39:10.071Z,2.80
2023-03-05T08:41:43.384Z,3.35
2023-03-05T08:44:16.752Z,3.37
2023-03-05T08:46:50.212Z,3.25
2023-03-05T08:49:23.647Z,3.65
2023-03-05T08:51:56.668Z,4.03
2023-03-05T08:54:30.051Z,3.35
2023-03-05T08:57:03.339Z,4.17
2023-03-05T08:59:36.519Z,3.75
2023-03-05T09:02:11.650Z,2.80
2023-03-05T09:04:45.046Z,3.02
2023-03-05T09:07:18.304Z,3.05
2023-03-05T09:09:51.839Z,3.15
2023-03-05T09:12:24.969Z,3.05
2023-03-05T09:14:58.190Z,3.40
2023-03-05T09:17:31.658Z,3.30
2023-03-05T09:20:08.475Z,2.30
2023-03-05T09:22:42.060Z,3.95
2023-03-05T09:25:15.640Z,3.60
2023-03-05T09:27:48.899Z,3.98
2023-03-05T09:30:23.570Z,4.15
2023-03-05T09:32:56.752Z,4.50
2023-03-05T09:35:30.968Z,3.92
2023-03-05T09:38:04.822Z,2.77
2023-03-05T09:40:45.378Z,3.12
2023-03-05T09:43:26.455Z,3.08
2023-03-05T09:46:16.196Z,3.75
2023-03-05T09:48:58.052Z,3.55
2023-03-05T09:51:38.392Z,3.45
2023-03-05T09:54:15.459Z,3.70
2023-03-05T09:56:52.005Z,3.90
2023-03-05T09:59:29.899Z,3.95
2023-03-05T10:02:06.606Z,4.47
2023-03-05T10:04:46.315Z,3.50
2023-03-05T10:07:23.220Z,3.50
2023-03-05T10:10:01.358Z,3.50
2023-03-05T10:12:43.052Z,3.37
2023-03-05T10:15:19.614Z,3.85
2023-03-05T10:18:11.010Z,4.00
2023-03-05T10:20:59.218Z,4.00
2023-03-05T10:23:37.646Z,3.10
2023-03-05T10:26:17.561Z,3.52
2023-03-05T10:28:56.525Z,3.87
2023-03-05T10:32:04.275Z,3.72
2023-03-05T10:35:00.781Z,3.90
2023-03-05T10:37:57.490Z,5.10
2023-03-05T10:40:34.118Z,3.93
2023-03-05T10:43:14.423Z,4.50
2023-03-05T10:45:50.233Z,3.27
2023-03-05T10:48:29.630Z,5.22
2023-03-05T10:51:07.093Z,4.45
2023-03-05T10:53:44.903Z,4.42
2023-03-05T10:56:20.610Z,5.10
2023-03-05T10:58:54.468Z,4.58
2023-03-05T11:01:29.745Z,4.95
2023-03-05T11:04:04.968Z,5.08
2023-03-05T11:06:41.297Z,4.55
2023-03-05T11:09:28.773Z,4.60
2023-03-05T11:12:18.324Z,4.40
2023-03-05T11:15:05.721Z,4.70
2023-03-05T11:17:42.763Z,4.03
2023-03-05T11:20:35.502Z,3.50
2023-03-05T11:23:14.670Z,4.85
2023-03-05T11:25:57.969Z,4.25
2023-03-05T11:28:34.347Z,4.17
2023-03-05T11:31:13.237Z,4.35
2023-03-05T11:33:57.868Z,5.22
2023-03-05T11:36:33.526Z,4.58
2023-03-05T11:39:17.213Z,5.08
2023-03-05T11:41:53.202Z,3.70
2023-03-05T11:44:29.051Z,3.60
2023-03-05T11:47:05.929Z,2.60
2023-03-05T11:49:42.798Z,4.17
2023-03-05T11:52:19.240Z,4.30
2023-03-05T11:55:00.559Z,2.95
2023-03-05T11:57:38.262Z,4.22
2023-03-05T12:00:18.350Z,5.43
2023-03-05T12:02:56.141Z,5.28
2023-03-05T12:05:31.366Z,5.28
2023-03-05T12:08:06.272Z,3.65
2023-03-05T12:10:39.589Z,4.22
2023-03-05T12:16:13.853Z,4.28
2023-03-05T12:19:01.750Z,3.60
2023-03-05T12:21:38.225Z,3.45
2023-03-05T12:24:40.425Z,3.65
2023-03-05T12:27:17.168Z,3.42
2023-03-05T12:29:54.454Z,2.95
2023-03-05T12:32:54.862Z,3.55
2023-03-05T12:35:36.485Z,4.28
2023-03-05T12:38:27.207Z,4.00
2023-03-05T12:41:35.827Z,3.00
2023-03-05T12:44:22.444Z,3.37
2023-03-05T12:47:21.844Z,3.12
2023-03-05T12:52:39.141Z,2.67
2023-03-05T12:55:25.906Z,3.20
2023-03-05T12:58:04.255Z,3.42
2023-03-05T13:00:41.037Z,3.25
2023-03-05T13:03:18.012Z,3.20
2023-03-05T13:05:55.359Z,2.90
2023-03-05T13:08:30.690Z,3.12
2023-03-05T13:11:08.532Z,3.00
2023-03-05T13:13:44.871Z,2.75
2023-03-05T13:16:22.810Z,2.80
2023-03-05T13:18:58.111Z,3.15
2023-03-05T13:21:33.154Z,2.92
2023-03-05T13:24:08.773Z,3.25
2023-03-05T13:26:43.187Z,3.30
2023-03-05T13:29:19.026Z,3.50
2023-03-05T13:31:55.107Z,2.87
2023-03-05T13:34:44.633Z,3.05
2023-03-05T13:37:07.551Z,4.05
2023-03-05T13:39:43.683Z,3.30
2023-03-05T13:42:20.764Z,2.58
2023-03-05T13:45:02.308Z,3.35
2023-03-05T13:47:37.180Z,2.52
2023-03-05T13:50:24.865Z,3.12
2023-03-05T13:52:59.868Z,2.90
2023-03-05T13:55:33.161Z,3.47
2023-03-05T13:58:06.379Z,2.58
2023-03-05T14:00:40.178Z,2.25
2023-03-05T14:03:18.139Z,2.80
2023-03-05T14:05:51.676Z,2.83
2023-03-05T14:08:27.514Z,2.70
2023-03-05T14:11:03.497Z,3.35
2023-03-05T14:13:36.862Z,2.70
2023-03-05T14:16:11.578Z,3.25
2023-03-05T14:18:55.982Z,3.25
2023-03-05T14:21:45.883Z,3.10
2023-03-05T14:24:26.614Z,2.50
2023-03-05T14:27:03.407Z,3.12
2023-03-05T14:29:37.885Z,2.95
2023-03-05T14:32:18.664Z,3.12
2023-03-05T14:34:54.810Z,3.58
2023-03-05T14:37:30.935Z,3.67
2023-03-05T14:40:07.428Z,3.62
2023-03-05T14:42:52.159Z,3.77
2023-03-05T14:45:28.424Z,4.30
2023-03-05T14:48:03.603Z,4.67
2023-03-05T14:50:38.592Z,3.72
2023-03-05T14:53:16.073Z,3.10
2023-03-05T14:58:26.352Z,4.30
2023-03-05T15:01:00.267Z,3.98
2023-03-05T15:03:33.625Z,3.98
2023-03-05T15:06:09.443Z,3.45
2023-03-05T15:08:42.762Z,4.17
2023-03-05T15:11:16.205Z,3.58
2023-03-05T15:13:50.168Z,4.30
2023-03-05T15:16:24.094Z,3.47
2023-03-05T15:18:57.570Z,2.87
2023-03-05T15:21:30.438Z,3.25
2023-03-05T15:24:03.776Z,3.42
2023-03-05T15:26:37.492Z,3.67
2023-03-05T15:29:10.861Z,4.75
2023-03-05T15:31:44.058Z,5.05
2023-03-05T15:34:17.305Z,3.50
2023-03-05T15:36:50.365Z,4.20
2023-03-05T15:39:24.811Z,3.22
2023-03-05T15:41:58.600Z,3.67
2023-03-05T15:44:31.669Z,3.90
2023-03-05T15:47:04.984Z,3.87
2023-03-05T15:49:38.184Z,4.78
2023-03-05T15:52:11.638Z,3.98
2023-03-05T15:54:44.859Z,4.45
2023-03-05T15:57:18.340Z,3.65
2023-03-05T15:59:51.633Z,3.80
2023-03-05T16:02:25.876Z,3.37
2023-03-05T16:04:59.034Z,3.75
2023-03-05T16:07:36.070Z,3.25
2023-03-05T16:10:14.966Z,3.80
2023-03-05T16:12:51.240Z,4.42
2023-03-05T16:15:24.856Z,4.17
2023-03-05T16:18:00.043Z,3.90
2023-03-05T16:20:36.415Z,3.67
2023-03-05T16:23:10.036Z,4.17
2023-03-05T16:25:43.130Z,4.40
2023-03-05T16:28:16.560Z,4.10
2023-03-05T16:30:54.687Z,4.40
2023-03-05T16:33:28.009Z,4.00
2023-03-05T16:36:22.652Z,5.42
2023-03-05T16:38:57.973Z,6.22
2023-03-05T16:41:31.424Z,5.03
2023-03-05T16:44:05.043Z,8.70
2023-03-05T16:46:38.651Z,6.30
2023-03-05T16:49:11.986Z,5.03
2023-03-05T16:51:45.191Z,5.70
2023-03-05T16:54:18.515Z,6.70
2023-03-05T16:56:51.683Z,8.15
2023-03-05T16:59:25.194Z,6.80
2023-03-05T17:01:58.412Z,8.08
2023-03-05T17:04:31.580Z,7.92
2023-03-05T17:07:05.591Z,7.60
2023-03-05T17:09:39.055Z,8.83
2023-03-05T17:12:12.259Z,9.48
2023-03-05T17:14:45.721Z,7.90
2023-03-05T17:17:18.765Z,8.05
2023-03-05T17:19:51.781Z,10.60
2023-03-05T17:22:24.622Z,8.75
2023-03-05T17:24:58.307Z,8.70
2023-03-05T17:27:31.966Z,7.55
2023-03-05T17:30:08.314Z,7.35
2023-03-05T17:32:42.365Z,8.48
2023-03-05T17:35:20.283Z,8.23
2023-03-05T17:37:55.590Z,7.70
2023-03-05T17:40:29.020Z,8.13
2023-03-05T17:43:02.513Z,8.33
2023-03-05T17:45:36.243Z,8.50
2023-03-05T17:48:10.050Z,7.35
2023-03-05T17:50:45.204Z,7.45
2023-03-05T17:53:18.700Z,7.47
2023-03-05T17:55:51.828Z,8.73
2023-03-05T17:58:25.133Z,8.03
2023-03-05T18:01:03.710Z,6.92
2023-03-05T18:03:37.731Z,7.75
2023-03-05T18:06:10.973Z,7.05
2023-03-05T18:08:44.474Z,7.15
2023-03-05T18:11:18.709Z,6.92
2023-03-05T18:13:52.231Z,7.33
2023-03-05T18:16:25.906Z,6.92
2023-03-05T18:18:59.464Z,7.60
2023-03-05T18:21:33.121Z,7.37
2023-03-05T18:24:07.756Z,8.20
2023-03-05T18:26:41.578Z,7.53
2023-03-05T18:29:17.083Z,6.60
2023-03-05T18:31:53.289Z,7.20
2023-03-05T18:34:28.499Z,7.47
2023-03-05T18:37:02.041Z,7.50
2023-03-05T18:39:35.803Z,7.17
2023-03-05T18:42:11.928Z,6.85
2023-03-05T18:44:45.457Z,6.25
2023-03-05T18:47:19.123Z,8.23
2023-03-05T18:49:53.304Z,6.67
2023-03-05T18:52:26.680Z,7.75
2023-03-05T18:55:00.184Z,6.87
2023-03-05T18:57:34.527Z,7.22
2023-03-05T19:00:14.425Z,7.03
2023-03-05T19:02:47.940Z,6.90
2023-03-05T19:05:22.444Z,6.03
2023-03-05T19:07:56.894Z,8.08
2023-03-05T19:10:31.754Z,7.08
2023-03-05T19:16:32.380Z,7.40
2023-03-05T19:19:20.661Z,7.53
2023-03-05T19:21:56.499Z,7.58
2023-03-05T19:24:32.600Z,7.33
2023-03-05T19:27:11.244Z,7.20
2023-03-05T19:29:46.135Z,9.93
2023-03-05T19:32:24.115Z,8.15
2023-03-05T19:34:59.749Z,8.08
2023-03-05T19:37:35.038Z,8.18
2023-03-05T19:40:11.340Z,8.95
2023-03-05T19:42:45.120Z,8.63
2023-03-05T19:45:21.353Z,8.73
2023-03-05T19:47:55.220Z,9.18
2023-03-05T19:50:32.838Z,8.85
2023-03-05T19:53:06.078Z,9.03
2023-03-05T19:55:42.535Z,9.88
2023-03-05T19:58:15.981Z,9.48
2023-03-05T20:00:49.912Z,8.00
2023-03-05T20:03:23.525Z,8.55
2023-03-05T20:05:57.236Z,9.55
2023-03-05T20:08:30.780Z,9.33
2023-03-05T20:11:04.362Z,7.58
2023-03-05T20:13:44.294Z,9.78
2023-03-05T20:16:20.682Z,9.50
2023-03-05T20:18:57.868Z,9.60
2023-03-05T20:21:34.443Z,7.97
2023-03-05T20:24:13.842Z,8.58
2023-03-05T20:26:48.882Z,9.58
2023-03-05T20:29:22.390Z,9.78
2023-03-05T20:31:57.308Z,10.18
2023-03-05T20:34:31.466Z,9.98
2023-03-05T20:37:06.064Z,10.05
2023-03-05T20:39:39.569Z,10.40
2023-03-05T20:42:12.894Z,8.95
2023-03-05T20:44:46.472Z,10.10
2023-03-05T20:47:38.686Z,9.60
2023-03-05T20:50:14.503Z,8.65
2023-03-05T20:52:48.096Z,9.95
2023-03-05T20:55:21.410Z,10.60
2023-03-05T20:57:55.135Z,6.25
2023-03-05T21:00:28.896Z,9.23
2023-03-05T21:03:02.355Z,9.43
2023-03-05T21:05:37.080Z,9.35
2023-03-05T21:08:10.572Z,9.55
2023-03-05T21:10:44.164Z,9.40
2023-03-05T21:13:17.728Z,10.68
2023-03-05T21:15:50.816Z,9.73
2023-03-05T21:18:24.239Z,9.75
2023-03-05T21:20:57.656Z,9.15
2023-03-05T21:23:31.036Z,8.90
2023-03-05T21:26:05.249Z,9.00
2023-03-05T21:28:40.380Z,8.78
2023-03-05T21:31:16.934Z,8.38
2023-03-05T21:33:50.604Z,9.20
2023-03-05T21:36:24.262Z,9.88
2023-03-05T21:38:58.495Z,9.93
2023-03-05T21:41:31.958Z,9.55
2023-03-05T21:44:06.008Z,7.95
2023-03-05T21:46:42.426Z,8.93
2023-03-05T21:49:15.823Z,7.90
2023-03-05T21:54:51.077Z,8.48
2023-03-05T21:57:26.543Z,7.90
2023-03-05T22:00:00.106Z,10.10
2023-03-05T22:02:34.687Z,9.15
2023-03-05T22:05:12.779Z,7.45
2023-03-05T22:07:47.409Z,9.05
2023-03-05T22:10:22.450Z,9.18
2023-03-05T22:15:57.639Z,6.30
2023-03-05T22:18:33.054Z,6.87
2023-03-05T22:21:07.214Z,7.22
2023-03-05T22:23:40.721Z,6.45
2023-03-05T22:26:14.232Z,6.28
2023-03-05T22:28:47.550Z,6.05
2023-03-05T22:31:24.548Z,4.67
2023-03-05T22:33:58.009Z,4.85
2023-03-05T22:36:31.455Z,4.70
2023-03-05T22:39:05.156Z,6.25
2023-03-05T22:41:38.511Z,4.28
2023-03-05T22:44:12.134Z,5.62
2023-03-05T22:46:45.600Z,5.15
2023-03-05T22:49:19.191Z,5.12
2023-03-05T22:51:52.644Z,5.15
2023-03-05T22:54:26.051Z,4.08
2023-03-05T22:56:59.771Z,4.60
2023-03-05T22:59:33.365Z,4.95
2023-03-05T23:02:07.514Z,5.35
2023-03-05T23:04:50.340Z,4.95
2023-03-05T23:07:25.461Z,5.25
2023-03-05T23:10:01.014Z,5.15
2023-03-05T23:12:36.173Z,4.90
2023-03-05T23:15:14.634Z,4.28
2023-03-05T23:17:48.208Z,4.37
2023-03-05T23:20:24.857Z,4.37
2023-03-05T23:22:59.323Z,4.60
2023-03-05T23:25:35.292Z,4.08
2023-03-05T23:28:09.148Z,4.85
2023-03-05T23:30:43.343Z,5.05
2023-03-05T23:33:18.897Z,5.03
2023-03-05T23:35:57.467Z,3.65
2023-03-05T23:38:31.934Z,5.15
2023-03-05T23:41:06.997Z,4.45
2023-03-05T23:43:40.423Z,3.17
2023-03-05T23:46:14.895Z,4.03
2023-03-05T23:48:48.233Z,4.70
2023-03-05T23:51:21.895Z,5.03
2023-03-05T23:53:55.274Z,4.22
2023-03-05T23:56:28.600Z,4.33
2023-03-05T23:59:02.371Z,4.60
